createdAt,value
2023-01-12T00:04:37.634Z,9.32
2023-01-12T00:09:39.177Z,9.38
2023-01-12T00:14:40.717Z,9.21
2023-01-12T00:19:42.276Z,9.23
2023-01-12T00:24:46.074Z,9.37
2023-01-12T00:29:48.623Z,9.31
2023-01-12T00:34:50.394Z,9.48
2023-01-12T00:40:01.853Z,9.44
2023-01-12T00:45:04.162Z,9.45
2023-01-12T00:50:06.026Z,9.37
2023-01-12T00:55:07.930Z,9.34
2023-01-12T01:00:12.883Z,9.35
2023-01-12T01:05:14.582Z,9.43
2023-01-12T01:10:16.767Z,9.33
2023-01-12T01:15:18.319Z,9.34
2023-01-12T01:20:19.929Z,9.40
2023-01-12T01:25:21.497Z,9.37
2023-01-12T01:30:22.962Z,9.39
2023-01-12T01:35:24.645Z,9.48
2023-01-12T01:40:26.217Z,9.46
2023-01-12T01:45:27.722Z,9.43
2023-01-12T01:50:37.622Z,9.38
2023-01-12T01:55:44.754Z,9.27
2023-01-12T02:00:46.261Z,9.31
2023-01-12T02:05:50.054Z,9.14
2023-01-12T02:10:52.674Z,9.28
2023-01-12T02:16:15.108Z,9.31
2023-01-12T02:21:51.682Z,9.33
2023-01-12T02:27:23.942Z,9.14
2023-01-12T02:32:43.923Z,9.26
2023-01-12T02:37:54.831Z,9.50
2023-01-12T02:43:09.020Z,9.38
2023-01-12T02:48:20.442Z,9.33
2023-01-12T02:53:29.995Z,9.47
2023-01-12T02:58:36.788Z,9.40
2023-01-12T03:03:38.797Z,9.42
2023-01-12T03:08:40.366Z,9.45
2023-01-12T03:13:51.855Z,9.46
2023-01-12T03:18:58.813Z,9.56
2023-01-12T03:24:17.050Z,9.60
2023-01-12T03:29:33.553Z,9.45
2023-01-12T03:34:36.687Z,9.59
2023-01-12T03:39:56.139Z,9.50
2023-01-12T03:45:22.369Z,9.57
2023-01-12T03:50:30.522Z,9.55
2023-01-12T03:55:34.806Z,9.60
2023-01-12T04:00:36.979Z,9.58
2023-01-12T04:05:39.757Z,9.52
2023-01-12T04:10:41.420Z,9.57
2023-01-12T04:15:43.009Z,9.56
2023-01-12T04:20:46.734Z,9.52
2023-01-12T04:25:48.388Z,9.47
2023-01-12T04:30:49.831Z,9.51
2023-01-12T04:35:51.243Z,9.50
2023-01-12T04:40:55.680Z,9.50
2023-01-12T04:45:57.276Z,9.54
2023-01-12T04:51:00.809Z,9.60
2023-01-12T04:56:06.930Z,9.47
2023-01-12T05:01:13.664Z,9.23
2023-01-12T05:06:15.226Z,9.38
2023-01-12T05:11:17.359Z,9.53
2023-01-12T05:16:18.991Z,9.46
2023-01-12T05:21:21.757Z,9.47
2023-01-12T05:26:23.308Z,9.41
2023-01-12T05:31:24.819Z,9.50
2023-01-12T05:36:26.676Z,9.37
2023-01-12T05:41:28.167Z,9.34
2023-01-12T05:46:31.589Z,9.48
2023-01-12T05:51:33.019Z,9.25
2023-01-12T05:56:34.543Z,9.05
2023-01-12T06:01:36.290Z,8.99
2023-01-12T06:06:37.723Z,9.08
2023-01-12T06:11:39.193Z,8.91
2023-01-12T06:16:42.420Z,8.96
2023-01-12T06:21:44.090Z,9.02
2023-01-12T06:26:45.529Z,9.10
2023-01-12T06:31:47.021Z,9.20
2023-01-12T06:36:48.469Z,9.05
2023-01-12T06:41:49.890Z,9.12
2023-01-12T06:46:51.526Z,9.08
2023-01-12T06:51:52.984Z,9.16
2023-01-12T06:56:54.456Z,9.09
2023-01-12T07:01:56.047Z,9.18
2023-01-12T07:06:57.566Z,9.01
2023-01-12T07:11:59.340Z,9.06
2023-01-12T07:17:00.781Z,9.03
2023-01-12T07:22:02.190Z,8.99
2023-01-12T07:27:04.135Z,9.11
2023-01-12T07:32:05.823Z,9.15
2023-01-12T07:37:07.357Z,8.99
2023-01-12T07:42:08.954Z,8.93
2023-01-12T07:47:10.440Z,9.24
2023-01-12T07:52:12.687Z,9.16
2023-01-12T07:57:14.174Z,9.16
2023-01-12T08:02:15.911Z,9.15
2023-01-12T08:07:17.490Z,9.08
2023-01-12T08:12:18.992Z,9.10
2023-01-12T08:17:22.533Z,9.28
2023-01-12T08:22:30.447Z,9.39
2023-01-12T08:27:33.938Z,9.37
2023-01-12T08:32:36.959Z,9.52
2023-01-12T08:37:38.652Z,9.37
2023-01-12T08:42:40.208Z,9.46
2023-01-12T08:47:41.793Z,9.55
2023-01-12T08:52:43.334Z,9.72
2023-01-12T08:57:44.994Z,9.69
2023-01-12T09:02:46.533Z,9.72
2023-01-12T09:07:48.059Z,9.70
2023-01-12T09:12:49.535Z,9.75
2023-01-12T09:17:54.747Z,9.70
2023-01-12T09:22:56.312Z,9.88
2023-01-12T09:27:58.424Z,9.87
2023-01-12T09:32:59.913Z,9.92
2023-01-12T09:38:01.308Z,10.06
2023-01-12T09:43:03.273Z,10.10
2023-01-12T09:48:08.290Z,9.99
2023-01-12T09:53:33.788Z,10.17
2023-01-12T09:59:04.269Z,10.21
2023-01-12T10:04:06.980Z,10.21
2023-01-12T10:09:34.737Z,10.36
2023-01-12T10:14:49.689Z,10.27
2023-01-12T10:20:01.717Z,10.45
2023-01-12T10:25:35.047Z,10.38
2023-01-12T10:30:39.261Z,10.48
2023-01-12T10:35:54.303Z,10.47
2023-01-12T10:41:17.035Z,10.54
2023-01-12T10:46:20.297Z,10.49
2023-01-12T10:51:30.292Z,10.50
2023-01-12T10:56:42.756Z,10.73
2023-01-12T11:01:52.016Z,10.64
2023-01-12T11:07:05.263Z,10.70
2023-01-12T11:12:29.607Z,10.77
2023-01-12T11:18:02.298Z,10.74
2023-01-12T11:23:08.889Z,10.67
2023-01-12T11:28:23.283Z,10.64
2023-01-12T11:33:30.157Z,10.57
2023-01-12T11:39:03.522Z,10.64
2023-01-12T11:44:22.453Z,10.61
2023-01-12T11:49:47.614Z,10.73
2023-01-12T11:54:49.165Z,10.73
2023-01-12T12:00:02.468Z,10.81
2023-01-12T12:05:25.127Z,10.91
2023-01-12T12:10:43.672Z,10.94
2023-01-12T12:16:08.144Z,10.98
2023-01-12T12:26:38.785Z,10.87
2023-01-12T12:31:51.447Z,10.85
2023-01-12T12:37:06.695Z,10.94
2023-01-12T12:42:32.780Z,10.95
2023-01-12T12:47:34.277Z,10.89
2023-01-12T12:52:35.862Z,10.92
2023-01-12T12:58:04.118Z,11.00
2023-01-12T13:03:06.429Z,10.90
2023-01-12T13:08:24.189Z,11.00
2023-01-12T13:13:35.027Z,10.90
2023-01-12T13:19:06.800Z,10.92
2023-01-12T13:24:11.059Z,10.94
2023-01-12T13:29:27.885Z,10.93
2023-01-12T13:34:38.682Z,10.93
2023-01-12T13:39:51.544Z,10.96
2023-01-12T13:44:53.736Z,11.04
2023-01-12T13:49:58.776Z,11.04
2023-01-12T13:55:00.389Z,11.05
2023-01-12T14:00:08.368Z,11.03
2023-01-12T14:05:26.926Z,11.08
2023-01-12T14:10:37.977Z,11.06
2023-01-12T14:15:41.115Z,11.04
2023-01-12T14:20:54.301Z,11.02
2023-01-12T14:26:10.819Z,10.99
2023-01-12T14:31:31.521Z,10.97
2023-01-12T14:36:42.788Z,10.95
2023-01-12T14:41:47.894Z,11.00
2023-01-12T14:46:52.509Z,11.08
2023-01-12T14:51:59.404Z,11.10
2023-01-12T14:57:07.935Z,10.92
2023-01-12T15:02:15.119Z,11.03
2023-01-12T15:07:19.861Z,10.99
2023-01-12T15:12:30.314Z,11.03
2023-01-12T15:17:31.949Z,10.93
2023-01-12T15:22:33.530Z,10.88
2023-01-12T15:27:35.053Z,10.84
2023-01-12T15:32:47.441Z,10.91
2023-01-12T15:37:51.483Z,10.81
2023-01-12T15:42:53.628Z,10.86
2023-01-12T15:47:55.352Z,10.80
2023-01-12T15:52:59.042Z,10.88
2023-01-12T15:58:00.539Z,10.83
2023-01-12T16:03:02.431Z,10.79
2023-01-12T16:08:04.290Z,10.84
2023-01-12T16:13:07.634Z,10.73
2023-01-12T16:18:09.932Z,10.56
2023-01-12T16:23:11.665Z,10.81
2023-01-12T16:28:13.159Z,10.79
2023-01-12T16:33:14.635Z,10.64
2023-01-12T16:38:18.423Z,10.70
2023-01-12T16:43:22.165Z,10.75
2023-01-12T16:48:23.725Z,10.80
2023-01-12T16:53:26.602Z,10.85
2023-01-12T16:58:28.446Z,10.71
2023-01-12T17:03:30.143Z,10.80
2023-01-12T17:08:32.465Z,10.71
2023-01-12T17:13:34.191Z,10.63
2023-01-12T17:18:37.132Z,10.71
2023-01-12T17:23:41.133Z,10.68
2023-01-12T17:28:42.668Z,10.65
2023-01-12T17:33:44.676Z,10.67
2023-01-12T17:38:46.167Z,10.70
2023-01-12T17:43:47.674Z,10.71
2023-01-12T17:48:50.232Z,10.53
2023-01-12T17:53:58.408Z,10.58
2023-01-12T17:59:00.655Z,10.65
2023-01-12T18:04:03.102Z,10.65
2023-01-12T18:09:05.225Z,10.66
2023-01-12T18:14:07.417Z,10.54
2023-01-12T18:19:11.696Z,10.59
2023-01-12T18:24:13.103Z,10.52
2023-01-12T18:29:14.712Z,10.60
2023-01-12T18:34:16.400Z,10.64
2023-01-12T18:39:19.140Z,10.51
2023-01-12T18:44:22.478Z,10.54
2023-01-12T18:49:26.277Z,10.48
2023-01-12T18:54:27.786Z,10.45
2023-01-12T18:59:29.322Z,10.38
2023-01-12T19:04:30.865Z,10.46
2023-01-12T19:09:32.343Z,10.46
2023-01-12T19:14:34.031Z,10.38
2023-01-12T19:19:36.145Z,10.53
2023-01-12T19:24:37.955Z,10.63
2023-01-12T19:29:41.188Z,10.71
2023-01-12T19:34:43.832Z,10.67
2023-01-12T19:39:46.572Z,10.68
2023-01-12T19:44:48.350Z,10.64
2023-01-12T19:49:50.884Z,10.79
2023-01-12T19:54:52.324Z,10.71
2023-01-12T19:59:53.956Z,10.74
2023-01-12T20:04:55.510Z,10.83
2023-01-12T20:09:57.082Z,10.84
2023-01-12T20:14:58.611Z,10.82
2023-01-12T20:20:00.102Z,10.76
2023-01-12T20:25:02.427Z,10.64
2023-01-12T20:30:06.524Z,10.66
2023-01-12T20:35:09.564Z,10.57
2023-01-12T20:40:12.836Z,10.43
2023-01-12T20:45:14.696Z,10.51
2023-01-12T20:50:16.768Z,10.43
2023-01-12T20:55:19.162Z,10.40
2023-01-12T21:00:20.741Z,10.56
2023-01-12T21:05:22.343Z,10.51
2023-01-12T21:10:24.175Z,10.38
2023-01-12T21:15:25.836Z,10.54
2023-01-12T21:20:27.344Z,10.48
2023-01-12T21:25:28.859Z,10.57
2023-01-12T21:30:30.339Z,10.50
2023-01-12T21:35:32.688Z,10.56
2023-01-12T21:40:36.771Z,10.46
2023-01-12T21:45:41.292Z,10.68
2023-01-12T21:50:43.428Z,10.56
2023-01-12T21:55:59.874Z,10.50
2023-01-12T22:01:16.754Z,10.61
2023-01-12T22:06:18.261Z,10.63
2023-01-12T22:11:20.907Z,10.73
2023-01-12T22:16:22.688Z,10.68
2023-01-12T22:21:24.225Z,10.65
2023-01-12T22:26:25.635Z,10.53
2023-01-12T22:31:27.149Z,10.51
2023-01-12T22:36:28.756Z,10.70
2023-01-12T22:41:30.279Z,10.56
2023-01-12T22:46:31.789Z,10.60
2023-01-12T22:51:33.609Z,10.65
2023-01-12T22:56:38.824Z,10.65
2023-01-12T23:01:40.477Z,10.62
2023-01-12T23:06:42.061Z,10.51
2023-01-12T23:11:43.664Z,10.76
2023-01-12T23:16:45.062Z,10.86
2023-01-12T23:21:46.507Z,10.73
2023-01-12T23:26:48.078Z,10.75
2023-01-12T23:31:50.618Z,10.77
2023-01-12T23:36:52.016Z,10.85
2023-01-12T23:41:53.460Z,10.75
2023-01-12T23:46:54.913Z,10.84
2023-01-12T23:51:56.342Z,10.89
2023-01-12T23:56:57.801Z,10.81
